Time;durP1;ratioP1;P1;durP2;ratioP2;P2;SDS_P1;SDS_P2;PMS_P1;PMS_P2;Temp;Humidity;BMP_temperature;BMP_pressure;BME280_temperature;BME280_humidity;BME280_pressure;Samples;Min_cycle;Max_cycle;Signal;HPM_P1;HPM_P2
2022/12/11 00:00:46;;;;;;;36.58;29.02;;;;;;;;;;10071843;28;20387;-65
2022/12/11 00:05:39;;;;;;;34.05;27.38;;;;;;;;;;10071023;28;20498;-65
2022/12/11 00:10:33;;;;;;;36.65;27.38;;;;;;;;;;10071148;28;20060;-65
2022/12/11 00:15:30;;;;;;;42.20;28.65;;;;;;;;;;10071120;28;20509;-65
2022/12/11 00:20:23;;;;;;;40.38;29.33;;;;;;;;;;10071465;28;20109;-65
2022/12/11 00:25:18;;;;;;;38.50;28.25;;;;;;;;;;10071168;28;20061;-65
2022/12/11 00:30:13;;;;;;;40.78;30.73;;;;;;;;;;10071209;28;20204;-65
2022/12/11 00:35:09;;;;;;;45.45;32.67;;;;;;;;;;10070693;28;20077;-65
2022/12/11 00:40:04;;;;;;;41.05;31.38;;;;;;;;;;10070422;28;20111;-65
2022/12/11 00:44:58;;;;;;;41.97;32.35;;;;;;;;;;10069411;28;20119;-65
2022/12/11 00:49:52;;;;;;;42.17;31.70;;;;;;;;;;10069963;28;20120;-65
2022/12/11 00:54:45;;;;;;;42.60;31.75;;;;;;;;;;10070424;28;20049;-65
2022/12/11 00:59:40;;;;;;;42.03;32.78;;;;;;;;;;10069537;28;20057;-65
2022/12/11 01:04:35;;;;;;;44.30;33.22;;;;;;;;;;10069401;28;20057;-65
2022/12/11 01:14:42;;;;;;;46.88;34.60;;;;;;;;;;10069136;28;20405;-65
2022/12/11 01:19:36;;;;;;;47.10;35.35;;;;;;;;;;10067987;28;20532;-64
2022/12/11 01:24:29;;;;;;;48.28;33.33;;;;;;;;;;10068316;28;20125;-64
2022/12/11 01:29:23;;;;;;;43.05;33.15;;;;;;;;;;10067824;28;20061;-64
2022/12/11 01:34:18;;;;;;;46.25;35.63;;;;;;;;;;10068393;28;20046;-64
2022/12/11 01:39:11;;;;;;;42.53;34.90;;;;;;;;;;10068446;28;20065;-65
2022/12/11 01:44:10;;;;;;;40.45;33.42;;;;;;;;;;10068072;28;20040;-64
2022/12/11 01:49:06;;;;;;;42.88;34.03;;;;;;;;;;10067458;28;20061;-65
2022/12/11 01:54:04;;;;;;;42.05;33.42;;;;;;;;;;10066218;28;20391;-65
2022/12/11 01:59:05;;;;;;;43.28;34.25;;;;;;;;;;10064519;28;20064;-65
2022/12/11 02:04:00;;;;;;;42.05;34.40;;;;;;;;;;10067228;28;20077;-65
2022/12/11 02:08:54;;;;;;;39.53;33.30;;;;;;;;;;10066474;28;20111;-65
2022/12/11 02:13:56;;;;;;;41.70;30.98;;;;;;;;;;10067054;28;20045;-65
2022/12/11 02:18:56;;;;;;;40.13;32.63;;;;;;;;;;10065335;28;20064;-65
2022/12/11 02:23:58;;;;;;;39.47;30.73;;;;;;;;;;10066190;28;20045;-65
2022/12/11 02:29:02;;;;;;;43.67;31.95;;;;;;;;;;10055890;28;20069;-65
2022/12/11 02:34:37;;;;;;;43.55;32.90;;;;;;;;;;10045301;28;20081;-64
2022/12/11 02:39:39;;;;;;;47.17;34.13;;;;;;;;;;10066229;28;20144;-64
2022/12/11 02:44:33;;;;;;;45.50;34.97;;;;;;;;;;10064903;28;20061;-64
2022/12/11 02:50:06;;;;;;;45.20;34.13;;;;;;;;;;10065835;28;20409;-65
2022/12/11 02:55:19;;;;;;;46.63;34.83;;;;;;;;;;10057964;28;20096;-64
2022/12/11 03:00:15;;;;;;;42.53;33.88;;;;;;;;;;10065698;28;20395;-64
2022/12/11 03:05:10;;;;;;;44.17;33.28;;;;;;;;;;10066691;28;20049;-65
2022/12/11 03:10:06;;;;;;;45.97;36.10;;;;;;;;;;10065246;28;20054;-65
2022/12/11 03:15:02;;;;;;;40.70;33.13;;;;;;;;;;10066065;28;20391;-65
2022/12/11 03:19:58;;;;;;;36.78;30.80;;;;;;;;;;10065616;28;20054;-64
2022/12/11 03:25:00;;;;;;;41.88;32.30;;;;;;;;;;10065838;28;20056;-65
2022/12/11 03:30:01;;;;;;;39.30;32.65;;;;;;;;;;10064169;28;20137;-65
2022/12/11 03:35:05;;;;;;;38.13;31.45;;;;;;;;;;10057969;28;20051;-65
2022/12/11 03:40:03;;;;;;;40.80;33.20;;;;;;;;;;10054189;28;20057;-65
2022/12/11 03:44:59;;;;;;;42.15;34.22;;;;;;;;;;10066940;28;20053;-64
2022/12/11 03:49:53;;;;;;;41.42;32.22;;;;;;;;;;10069620;28;20405;-64
2022/12/11 03:54:49;;;;;;;41.13;33.03;;;;;;;;;;10071855;28;20050;-64
2022/12/11 03:59:43;;;;;;;39.55;31.33;;;;;;;;;;10072657;28;20051;-64
2022/12/11 04:04:40;;;;;;;42.58;32.03;;;;;;;;;;10071842;28;20053;-64
2022/12/11 04:09:33;;;;;;;41.40;31.52;;;;;;;;;;10071165;28;20160;-64
2022/12/11 04:24:50;;;;;;;35.63;28.25;;;;;;;;;;10071540;28;20041;-64
2022/12/11 04:29:43;;;;;;;33.42;24.73;;;;;;;;;;10069327;28;20056;-64
2022/12/11 04:34:39;;;;;;;31.73;25.05;;;;;;;;;;10067711;28;20061;-64
2022/12/11 04:39:33;;;;;;;35.38;23.98;;;;;;;;;;10070755;28;20049;-65
2022/12/11 04:44:27;;;;;;;31.30;24.65;;;;;;;;;;10069953;28;20056;-64
2022/12/11 04:49:21;;;;;;;29.15;23.05;;;;;;;;;;10080989;28;20052;-64
2022/12/11 04:54:15;;;;;;;36.47;26.27;;;;;;;;;;10070623;28;20050;-65
2022/12/11 04:59:10;;;;;;;35.53;27.27;;;;;;;;;;10068736;28;20103;-65
2022/12/11 05:04:04;;;;;;;54.45;29.67;;;;;;;;;;10069562;28;20049;-64
2022/12/11 05:08:58;;;;;;;74.55;31.73;;;;;;;;;;10069087;28;20044;-64
2022/12/11 05:13:52;;;;;;;66.22;31.85;;;;;;;;;;10069007;28;20048;-65
2022/12/11 05:18:46;;;;;;;86.32;30.00;;;;;;;;;;10068764;28;20061;-65
2022/12/11 05:23:39;;;;;;;82.43;27.23;;;;;;;;;;10068233;28;20555;-65
2022/12/11 05:28:35;;;;;;;89.38;29.55;;;;;;;;;;10067404;28;20053;-64
2022/12/11 05:33:29;;;;;;;92.93;30.67;;;;;;;;;;10072063;28;20075;-64
2022/12/11 05:38:22;;;;;;;75.72;29.25;;;;;;;;;;10077694;28;20056;-65
2022/12/11 05:43:16;;;;;;;93.20;27.92;;;;;;;;;;10086817;28;20057;-64
2022/12/11 05:48:10;;;;;;;96.93;31.98;;;;;;;;;;10082921;28;20049;-64
2022/12/11 05:53:04;;;;;;;103.82;28.98;;;;;;;;;;10083066;28;20111;-64
2022/12/11 05:57:58;;;;;;;102.50;28.70;;;;;;;;;;10086498;28;20551;-64
2022/12/11 06:02:51;;;;;;;89.28;26.38;;;;;;;;;;10084278;28;20409;-64
2022/12/11 06:07:47;;;;;;;79.00;29.05;;;;;;;;;;10079688;28;20128;-64
2022/12/11 06:12:41;;;;;;;78.05;28.52;;;;;;;;;;10082317;28;20088;-64
2022/12/11 06:17:35;;;;;;;70.43;23.95;;;;;;;;;;10073370;28;20489;-63
2022/12/11 06:22:30;;;;;;;87.00;23.90;;;;;;;;;;10077665;28;20099;-63
2022/12/11 06:27:24;;;;;;;86.13;24.55;;;;;;;;;;10073397;28;20505;-63
2022/12/11 06:32:17;;;;;;;66.35;23.00;;;;;;;;;;10087564;28;20052;-63
2022/12/11 06:37:11;;;;;;;50.97;22.90;;;;;;;;;;10082063;28;20053;-63
2022/12/11 06:42:04;;;;;;;66.63;23.58;;;;;;;;;;10079245;28;20147;-63
2022/12/11 06:46:58;;;;;;;64.60;24.10;;;;;;;;;;10081549;28;20383;-64
2022/12/11 06:51:52;;;;;;;93.32;24.25;;;;;;;;;;10080512;28;20057;-63
2022/12/11 06:56:46;;;;;;;65.93;22.55;;;;;;;;;;10080815;28;20056;-63
2022/12/11 07:01:40;;;;;;;108.88;24.58;;;;;;;;;;10070799;28;20053;-63
2022/12/11 07:06:33;;;;;;;84.82;21.95;;;;;;;;;;10072619;28;20072;-64
2022/12/11 07:11:28;;;;;;;51.10;20.30;;;;;;;;;;10073039;28;20051;-63
2022/12/11 07:16:21;;;;;;;51.08;20.67;;;;;;;;;;10066540;28;20041;-63
2022/12/11 07:21:15;;;;;;;45.08;21.13;;;;;;;;;;10089462;28;20485;-63
2022/12/11 07:26:10;;;;;;;26.80;19.42;;;;;;;;;;10083179;28;20080;-63
2022/12/11 07:31:06;;;;;;;38.22;25.75;;;;;;;;;;10073900;28;20084;-63
2022/12/11 07:36:05;;;;;;;45.60;22.17;;;;;;;;;;10083371;28;20087;-63
2022/12/11 07:41:22;;;;;;;37.33;22.30;;;;;;;;;;10091566;28;20402;-63
2022/12/11 07:46:21;;;;;;;39.00;22.13;;;;;;;;;;10081235;28;20113;-63
2022/12/11 07:51:16;;;;;;;158.70;99.20;;;;;;;;;;10090643;28;20543;-62
2022/12/11 07:56:09;;;;;;;30.50;22.73;;;;;;;;;;10077668;28;20079;-63
2022/12/11 08:01:04;;;;;;;36.63;24.08;;;;;;;;;;10073126;28;20045;-64
2022/12/11 08:05:58;;;;;;;24.02;18.33;;;;;;;;;;10077783;28;20085;-63
2022/12/11 08:10:52;;;;;;;25.67;20.73;;;;;;;;;;10083335;28;20077;-62
2022/12/11 08:15:45;;;;;;;38.80;29.88;;;;;;;;;;10084212;28;20045;-63
2022/12/11 08:20:40;;;;;;;22.80;18.60;;;;;;;;;;10078548;28;20053;-65
2022/12/11 08:25:35;;;;;;;25.98;19.75;;;;;;;;;;10081320;28;20049;-62
2022/12/11 08:30:28;;;;;;;23.98;18.45;;;;;;;;;;10070397;28;20073;-63
2022/12/11 08:35:22;;;;;;;22.45;17.52;;;;;;;;;;10070170;28;20123;-63
2022/12/11 08:40:17;;;;;;;26.42;20.00;;;;;;;;;;10068791;28;20045;-63
2022/12/11 08:45:11;;;;;;;27.10;18.25;;;;;;;;;;10069677;28;20521;-63
2022/12/11 08:50:06;;;;;;;24.45;18.20;;;;;;;;;;10068976;28;20465;-63
2022/12/11 08:54:59;;;;;;;23.70;19.25;;;;;;;;;;10074603;28;20062;-63
2022/12/11 08:59:53;;;;;;;20.95;15.65;;;;;;;;;;10075349;28;20045;-63
2022/12/11 09:04:47;;;;;;;26.42;17.50;;;;;;;;;;10068964;28;20045;-63
2022/12/11 09:09:41;;;;;;;26.45;17.90;;;;;;;;;;10079125;28;20046;-63
2022/12/11 09:14:34;;;;;;;18.38;15.13;;;;;;;;;;10079516;28;20046;-63
2022/12/11 09:19:27;;;;;;;20.85;13.98;;;;;;;;;;10079995;28;20521;-62
2022/12/11 09:24:24;;;;;;;20.67;14.10;;;;;;;;;;10071386;28;20475;-61
2022/12/11 09:29:18;;;;;;;33.47;27.25;;;;;;;;;;10072559;28;20050;-62
2022/12/11 09:34:11;;;;;;;54.78;34.65;;;;;;;;;;10068877;28;20084;-62
2022/12/11 09:39:06;;;;;;;24.77;16.33;;;;;;;;;;10066268;28;20160;-62
2022/12/11 09:44:39;;;;;;;27.75;24.10;;;;;;;;;;10069537;28;20049;-62
2022/12/11 09:49:42;;;;;;;24.98;18.85;;;;;;;;;;10070757;28;20533;-62
2022/12/11 09:54:35;;;;;;;18.70;13.35;;;;;;;;;;10068313;28;20116;-61
2022/12/11 09:59:33;;;;;;;20.67;14.70;;;;;;;;;;10066733;28;20497;-63
2022/12/11 10:04:54;;;;;;;18.60;16.67;;;;;;;;;;10057421;28;20597;-62
2022/12/11 10:09:52;;;;;;;18.67;15.73;;;;;;;;;;10062266;28;20056;-62
2022/12/11 10:15:11;;;;;;;20.33;14.38;;;;;;;;;;10058586;28;20053;-63
2022/12/11 10:20:17;;;;;;;19.05;14.15;;;;;;;;;;10059818;28;20179;-61
2022/12/11 10:25:53;;;;;;;15.85;11.38;;;;;;;;;;10062231;28;20129;-62
2022/12/11 10:31:07;;;;;;;19.17;12.57;;;;;;;;;;10060296;28;20738;-66
2022/12/11 10:36:00;;;;;;;15.13;13.43;;;;;;;;;;10060511;28;20154;-67
2022/12/11 10:41:05;;;;;;;14.25;11.55;;;;;;;;;;10062831;28;20068;-67
2022/12/11 10:46:12;;;;;;;14.63;9.98;;;;;;;;;;10060009;28;20061;-68
2022/12/11 10:51:14;;;;;;;13.63;10.48;;;;;;;;;;10061282;28;20049;-67
2022/12/11 10:56:08;;;;;;;96.97;78.53;;;;;;;;;;10069005;28;20057;-69
2022/12/11 11:01:24;;;;;;;45.13;40.40;;;;;;;;;;10068223;28;20065;-66
2022/12/11 11:06:58;;;;;;;13.73;10.88;;;;;;;;;;10066035;28;20058;-66
2022/12/11 11:12:21;;;;;;;13.18;10.57;;;;;;;;;;10065168;28;20071;-68
2022/12/11 11:17:15;;;;;;;15.63;13.13;;;;;;;;;;10066037;28;20410;-70
2022/12/11 11:22:33;;;;;;;20.88;13.23;;;;;;;;;;10068091;28;20041;-67
2022/12/11 11:27:45;;;;;;;13.90;12.35;;;;;;;;;;10068067;28;20061;-68
2022/12/11 11:33:01;;;;;;;16.13;12.88;;;;;;;;;;10067620;28;20414;-68
2022/12/11 11:38:36;;;;;;;18.83;14.05;;;;;;;;;;10067202;28;20049;-68
2022/12/11 11:43:46;;;;;;;17.80;14.85;;;;;;;;;;10070974;28;20053;-68
2022/12/11 11:48:39;;;;;;;17.55;13.82;;;;;;;;;;10069947;28;20053;-69
2022/12/11 11:53:40;;;;;;;14.45;12.27;;;;;;;;;;10071204;28;20056;-69
2022/12/11 11:59:01;;;;;;;15.05;13.02;;;;;;;;;;10071424;28;20049;-69
2022/12/11 12:03:54;;;;;;;13.27;11.90;;;;;;;;;;10068900;28;20055;-69
2022/12/11 12:09:02;;;;;;;14.98;12.55;;;;;;;;;;10070009;28;20054;-69
2022/12/11 12:14:13;;;;;;;28.23;25.23;;;;;;;;;;10066647;28;20059;-69
2022/12/11 12:19:54;;;;;;;14.68;13.20;;;;;;;;;;10067551;28;20476;-67
2022/12/11 12:25:15;;;;;;;13.65;11.27;;;;;;;;;;10071678;28;20111;-66
2022/12/11 12:30:11;;;;;;;12.27;10.95;;;;;;;;;;10076291;28;20061;-65
2022/12/11 12:35:37;;;;;;;13.00;11.57;;;;;;;;;;10074009;28;20050;-65
2022/12/11 12:40:54;;;;;;;11.63;10.52;;;;;;;;;;10071767;28;20057;-65
2022/12/11 12:46:25;;;;;;;10.93;9.82;;;;;;;;;;10076126;28;20049;-65
2022/12/11 12:51:19;;;;;;;10.68;9.38;;;;;;;;;;10082277;28;20057;-66
2022/12/11 12:56:13;;;;;;;11.30;10.10;;;;;;;;;;10084852;28;20379;-66
2022/12/11 13:01:10;;;;;;;11.65;9.40;;;;;;;;;;10079132;28;20052;-66
2022/12/11 13:06:06;;;;;;;10.55;9.40;;;;;;;;;;10083667;28;20049;-66
2022/12/11 13:11:05;;;;;;;11.45;10.40;;;;;;;;;;10079893;28;20486;-66
2022/12/11 13:16:16;;;;;;;12.57;9.75;;;;;;;;;;10089472;28;20140;-67
2022/12/11 13:21:33;;;;;;;11.45;9.95;;;;;;;;;;10080746;28;20058;-67
2022/12/11 13:26:28;;;;;;;10.73;9.63;;;;;;;;;;10079980;28;20054;-67
2022/12/11 13:31:21;;;;;;;12.27;8.77;;;;;;;;;;10083916;28;20052;-67
2022/12/11 13:36:35;;;;;;;8.93;8.02;;;;;;;;;;10072037;28;20084;-67
2022/12/11 13:41:28;;;;;;;12.55;10.60;;;;;;;;;;10075350;28;20059;-66
2022/12/11 13:46:27;;;;;;;10.65;9.30;;;;;;;;;;10074860;28;20044;-66
2022/12/11 13:51:22;;;;;;;10.82;9.60;;;;;;;;;;10078456;28;20053;-67
2022/12/11 13:56:18;;;;;;;10.60;9.50;;;;;;;;;;10081090;28;20057;-67
2022/12/11 14:01:24;;;;;;;9.27;8.05;;;;;;;;;;10082550;28;20053;-66
2022/12/11 14:06:18;;;;;;;9.73;8.38;;;;;;;;;;10071042;28;20069;-65
2022/12/11 14:11:21;;;;;;;8.65;7.75;;;;;;;;;;10066787;28;20049;-66
2022/12/11 14:16:20;;;;;;;10.52;9.20;;;;;;;;;;10064258;28;20067;-66
2022/12/11 14:21:20;;;;;;;9.00;7.65;;;;;;;;;;10063220;28;20128;-67
2022/12/11 14:26:20;;;;;;;8.48;7.25;;;;;;;;;;10064816;28;20115;-66
2022/12/11 14:31:17;;;;;;;7.13;6.43;;;;;;;;;;10066074;28;20453;-65
2022/12/11 14:36:11;;;;;;;7.32;6.65;;;;;;;;;;10064234;28;20045;-67
2022/12/11 14:41:25;;;;;;;7.88;6.75;;;;;;;;;;10062185;28;20057;-64
2022/12/11 14:46:45;;;;;;;7.13;6.43;;;;;;;;;;10063858;28;20054;-68
2022/12/11 14:51:39;;;;;;;9.63;6.55;;;;;;;;;;10063590;28;20045;-65
2022/12/11 14:56:34;;;;;;;24.92;18.33;;;;;;;;;;10064708;28;20095;-66
2022/12/11 15:01:28;;;;;;;8.43;7.13;;;;;;;;;;10065456;28;20049;-68
2022/12/11 15:06:29;;;;;;;8.48;7.57;;;;;;;;;;10064415;28;20119;-67
2022/12/11 15:11:24;;;;;;;42.08;36.35;;;;;;;;;;10074874;28;20067;-69
2022/12/11 15:16:18;;;;;;;46.80;33.88;;;;;;;;;;10074577;28;20073;-67
2022/12/11 15:21:12;;;;;;;71.20;44.45;;;;;;;;;;10068047;28;20124;-67
2022/12/11 15:26:06;;;;;;;10.18;9.02;;;;;;;;;;10070193;28;20061;-68
2022/12/11 15:31:05;;;;;;;14.88;8.93;;;;;;;;;;10071861;28;20069;-66
2022/12/11 15:36:00;;;;;;;6.10;5.50;;;;;;;;;;10074066;28;20049;-64
2022/12/11 15:40:53;;;;;;;7.50;6.80;;;;;;;;;;10084811;28;20529;-67
2022/12/11 15:45:48;;;;;;;5.28;4.75;;;;;;;;;;10082712;28;20087;-67
2022/12/11 15:50:42;;;;;;;5.13;4.63;;;;;;;;;;10080268;28;20052;-66
2022/12/11 15:55:36;;;;;;;7.13;6.50;;;;;;;;;;10083821;28;20573;-65
2022/12/11 16:00:30;;;;;;;6.25;5.65;;;;;;;;;;10076459;28;20049;-66
2022/12/11 16:05:24;;;;;;;9.50;5.70;;;;;;;;;;10085459;28;20124;-66
2022/12/11 16:10:18;;;;;;;4.72;4.32;;;;;;;;;;10086142;28;20111;-66
2022/12/11 16:15:12;;;;;;;4.40;4.00;;;;;;;;;;10081525;28;20419;-67
2022/12/11 16:20:15;;;;;;;5.78;5.18;;;;;;;;;;10079972;28;20053;-67
2022/12/11 16:25:08;;;;;;;5.13;4.72;;;;;;;;;;10080851;28;20076;-66
2022/12/11 16:30:04;;;;;;;4.85;4.45;;;;;;;;;;10075430;28;20107;-65
2022/12/11 16:35:00;;;;;;;5.00;4.53;;;;;;;;;;10092500;28;20052;-76
2022/12/11 16:39:58;;;;;;;4.75;4.32;;;;;;;;;;10081303;28;20049;-79
2022/12/11 16:45:08;;;;;;;5.43;4.50;;;;;;;;;;10080565;28;20054;-79
2022/12/11 16:50:02;;;;;;;4.70;4.30;;;;;;;;;;10095644;28;20045;-73
2022/12/11 16:54:56;;;;;;;5.22;4.72;;;;;;;;;;10083075;28;20045;-74
2022/12/11 16:59:49;;;;;;;10.15;7.10;;;;;;;;;;10069325;28;20398;-72
2022/12/11 17:04:45;;;;;;;6.15;5.22;;;;;;;;;;10074231;28;20077;-73
2022/12/11 17:09:46;;;;;;;6.32;5.45;;;;;;;;;;10076087;28;20061;-74
2022/12/11 17:14:40;;;;;;;6.35;5.50;;;;;;;;;;10076875;28;20045;-72
2022/12/11 17:19:35;;;;;;;8.23;6.75;;;;;;;;;;10077661;28;20041;-73
2022/12/11 17:24:29;;;;;;;8.90;8.02;;;;;;;;;;10085218;28;20049;-73
2022/12/11 17:29:22;;;;;;;10.68;9.43;;;;;;;;;;10081404;28;20075;-72
2022/12/11 17:34:16;;;;;;;7.40;6.70;;;;;;;;;;10088878;28;20057;-73
2022/12/11 17:39:09;;;;;;;6.82;6.03;;;;;;;;;;10074712;28;20050;-71
2022/12/11 17:44:03;;;;;;;6.75;6.15;;;;;;;;;;10075876;28;20137;-72
2022/12/11 17:48:58;;;;;;;10.30;9.05;;;;;;;;;;10073023;28;20540;-73
2022/12/11 17:53:57;;;;;;;9.60;8.60;;;;;;;;;;10084874;28;20052;-72
2022/12/11 17:58:51;;;;;;;9.20;8.25;;;;;;;;;;10067695;28;20608;-73
2022/12/11 18:03:45;;;;;;;10.13;8.98;;;;;;;;;;10066102;28;20053;-73
2022/12/11 18:08:41;;;;;;;8.45;7.25;;;;;;;;;;10066615;28;20444;-73
2022/12/11 18:13:36;;;;;;;11.00;9.90;;;;;;;;;;10066458;28;20049;-74
2022/12/11 18:18:29;;;;;;;8.48;7.68;;;;;;;;;;10066691;28;20084;-73
2022/12/11 18:23:23;;;;;;;10.82;9.05;;;;;;;;;;10065266;28;20048;-75
2022/12/11 18:28:17;;;;;;;11.40;10.30;;;;;;;;;;10062991;28;20140;-71
2022/12/11 18:33:11;;;;;;;10.15;9.25;;;;;;;;;;10076304;28;20045;-70
2022/12/11 18:38:07;;;;;;;14.18;12.75;;;;;;;;;;10067630;28;20053;-76
2022/12/11 18:43:00;;;;;;;12.65;11.27;;;;;;;;;;10073187;28;20418;-75
2022/12/11 18:47:55;;;;;;;10.80;9.70;;;;;;;;;;10063446;28;20052;-71
2022/12/11 18:52:55;;;;;;;10.15;9.25;;;;;;;;;;10071741;28;20052;-75
2022/12/11 18:57:48;;;;;;;9.40;8.38;;;;;;;;;;10080461;28;20076;-75
2022/12/11 19:02:42;;;;;;;12.20;9.52;;;;;;;;;;10070757;28;20111;-72
2022/12/11 19:07:36;;;;;;;16.67;12.43;;;;;;;;;;10070217;28;20083;-74
2022/12/11 19:12:30;;;;;;;21.73;14.23;;;;;;;;;;10076728;28;20144;-73
2022/12/11 19:17:24;;;;;;;20.02;14.15;;;;;;;;;;10080216;28;20072;-75
2022/12/11 19:22:19;;;;;;;13.18;11.57;;;;;;;;;;10085078;28;20107;-74
2022/12/11 19:27:12;;;;;;;13.55;11.55;;;;;;;;;;10070570;28;20060;-75
2022/12/11 19:32:06;;;;;;;14.40;12.48;;;;;;;;;;10073867;28;20630;-75
2022/12/11 19:37:00;;;;;;;20.80;15.00;;;;;;;;;;10073481;28;20068;-71
2022/12/11 19:41:54;;;;;;;19.58;15.70;;;;;;;;;;10074620;28;20571;-74
2022/12/11 19:46:47;;;;;;;12.95;11.60;;;;;;;;;;10077369;28;20049;-73
2022/12/11 19:51:42;;;;;;;14.90;12.93;;;;;;;;;;10083003;28;20049;-77
2022/12/11 19:56:36;;;;;;;19.17;15.95;;;;;;;;;;10076132;28;20085;-74
2022/12/11 20:01:31;;;;;;;24.35;17.40;;;;;;;;;;10083809;28;20076;-68
2022/12/11 20:06:27;;;;;;;17.08;13.52;;;;;;;;;;10073856;28;20063;-67
2022/12/11 20:11:20;;;;;;;18.48;15.63;;;;;;;;;;10084430;28;20490;-68
2022/12/11 20:16:14;;;;;;;15.48;13.20;;;;;;;;;;10083068;28;20559;-68
2022/12/11 20:21:12;;;;;;;14.32;12.80;;;;;;;;;;10075068;28;20080;-68
2022/12/11 20:26:14;;;;;;;15.27;11.95;;;;;;;;;;10077267;28;20080;-68
2022/12/11 20:31:10;;;;;;;16.17;13.48;;;;;;;;;;10073558;28;20053;-68
2022/12/11 20:36:15;;;;;;;18.38;16.30;;;;;;;;;;10077172;28;20057;-68
2022/12/11 20:41:11;;;;;;;24.67;19.17;;;;;;;;;;10072735;28;20073;-68
2022/12/11 20:46:11;;;;;;;16.08;14.05;;;;;;;;;;10074026;28;20059;-68
2022/12/11 20:51:08;;;;;;;24.77;19.48;;;;;;;;;;10077679;28;20506;-68
2022/12/11 20:56:09;;;;;;;26.88;21.70;;;;;;;;;;10075366;28;20083;-66
2022/12/11 21:01:03;;;;;;;34.08;27.83;;;;;;;;;;10069176;28;20588;-66
2022/12/11 21:05:57;;;;;;;50.17;38.70;;;;;;;;;;10068605;28;20045;-66
2022/12/11 21:10:51;;;;;;;25.67;22.48;;;;;;;;;;10067602;28;20045;-66
2022/12/11 21:15:45;;;;;;;23.75;21.20;;;;;;;;;;10070226;28;20494;-67
2022/12/11 21:20:37;;;;;;;19.02;17.13;;;;;;;;;;10071126;28;20046;-70
2022/12/11 21:25:32;;;;;;;16.85;13.90;;;;;;;;;;10074742;28;20045;-70
2022/12/11 21:30:25;;;;;;;12.98;11.70;;;;;;;;;;10067520;28;20395;-68
2022/12/11 21:35:18;;;;;;;17.58;15.68;;;;;;;;;;10072080;28;20045;-71
2022/12/11 21:40:13;;;;;;;15.05;13.55;;;;;;;;;;10069190;28;20133;-69
2022/12/11 21:45:07;;;;;;;17.60;15.55;;;;;;;;;;10076951;28;20045;-70
2022/12/11 21:50:21;;;;;;;18.02;16.13;;;;;;;;;;10083546;28;20486;-70
2022/12/11 21:55:17;;;;;;;17.08;15.48;;;;;;;;;;10076221;28;20060;-69
2022/12/11 22:00:12;;;;;;;19.92;17.88;;;;;;;;;;10084348;28;20049;-71
2022/12/11 22:05:06;;;;;;;21.67;19.27;;;;;;;;;;10066467;28;20555;-71
2022/12/11 22:09:59;;;;;;;21.05;18.25;;;;;;;;;;10064968;28;20068;-70
2022/12/11 22:14:53;;;;;;;21.85;19.27;;;;;;;;;;10065730;28;20041;-70
2022/12/11 22:19:46;;;;;;;21.92;19.60;;;;;;;;;;10066407;28;20048;-70
2022/12/11 22:24:40;;;;;;;23.45;20.17;;;;;;;;;;10065606;28;20056;-70
2022/12/11 22:29:34;;;;;;;21.20;19.10;;;;;;;;;;10073335;28;20061;-69
2022/12/11 22:34:28;;;;;;;20.65;17.95;;;;;;;;;;10073873;28;20099;-69
2022/12/11 22:39:23;;;;;;;21.08;18.75;;;;;;;;;;10083958;28;20049;-69
2022/12/11 22:44:20;;;;;;;15.18;13.65;;;;;;;;;;10074839;28;20096;-70
2022/12/11 22:49:15;;;;;;;24.15;16.13;;;;;;;;;;10082053;28;20057;-70
2022/12/11 22:54:10;;;;;;;18.95;15.93;;;;;;;;;;10091345;28;20501;-70
2022/12/11 22:59:06;;;;;;;20.65;15.38;;;;;;;;;;10095965;28;20627;-70
2022/12/11 23:03:59;;;;;;;19.13;16.92;;;;;;;;;;10073114;28;20472;-70
2022/12/11 23:08:53;;;;;;;17.55;15.73;;;;;;;;;;10086560;28;20049;-70
2022/12/11 23:13:48;;;;;;;21.45;17.08;;;;;;;;;;10079598;28;20437;-69
2022/12/11 23:18:42;;;;;;;22.05;18.88;;;;;;;;;;10090838;28;20520;-69
2022/12/11 23:23:36;;;;;;;22.75;18.48;;;;;;;;;;10081410;28;20103;-69
2022/12/11 23:28:32;;;;;;;20.15;17.75;;;;;;;;;;10086004;28;20417;-69
2022/12/11 23:33:26;;;;;;;24.75;19.23;;;;;;;;;;10085300;28;20053;-69
2022/12/11 23:38:19;;;;;;;20.85;15.93;;;;;;;;;;10075217;28;20054;-69
2022/12/11 23:43:14;;;;;;;22.10;17.75;;;;;;;;;;10075066;28;20053;-70
2022/12/11 23:48:10;;;;;;;24.10;19.65;;;;;;;;;;10084366;28;20072;-70
2022/12/11 23:53:04;;;;;;;24.60;19.13;;;;;;;;;;10091237;28;20053;-70
2022/12/11 23:57:56;;;;;;;21.25;18.73;;;;;;;;;;10083661;28;20096;-74
